Time;durP1;ratioP1;P1;durP2;ratioP2;P2;SDS_P1;SDS_P2;PMS_P1;PMS_P2;Temp;Humidity;BMP_temperature;BMP_pressure;BME280_temperature;BME280_humidity;BME280_pressure;Samples;Min_cycle;Max_cycle;Signal;HPM_P1;HPM_P2
2021/09/25 00:02:12;;;;;;;3.67;2.58;;;;;;;;;;5018816;28;20105;-70
2021/09/25 00:04:38;;;;;;;3.47;2.65;;;;;;;;;;5018171;28;20026;-75
2021/09/25 00:07:04;;;;;;;3.35;2.55;;;;;;;;;;5019409;28;20026;-75
2021/09/25 00:09:30;;;;;;;4.38;2.95;;;;;;;;;;5019473;28;20018;-71
2021/09/25 00:11:57;;;;;;;5.15;2.95;;;;;;;;;;5019690;28;20026;-73
2021/09/25 00:14:23;;;;;;;4.97;3.20;;;;;;;;;;5020298;28;20107;-71
2021/09/25 00:16:49;;;;;;;4.15;3.05;;;;;;;;;;5019431;28;20022;-67
2021/09/25 00:19:16;;;;;;;4.80;3.00;;;;;;;;;;5019601;28;20117;-72
2021/09/25 00:21:42;;;;;;;5.38;2.78;;;;;;;;;;5019559;28;20072;-74
2021/09/25 00:24:08;;;;;;;5.13;3.00;;;;;;;;;;5019766;28;20030;-69
2021/09/25 00:26:34;;;;;;;3.55;2.72;;;;;;;;;;5019202;28;20033;-72
2021/09/25 00:29:00;;;;;;;4.40;2.67;;;;;;;;;;5018594;28;20030;-74
2021/09/25 00:31:26;;;;;;;3.05;2.42;;;;;;;;;;5018794;28;20161;-70
2021/09/25 00:33:52;;;;;;;2.60;2.40;;;;;;;;;;5018322;28;20025;-74
2021/09/25 00:36:19;;;;;;;3.17;2.25;;;;;;;;;;5019293;28;20026;-73
2021/09/25 00:38:45;;;;;;;2.20;2.00;;;;;;;;;;5019232;28;20026;-68
2021/09/25 00:41:11;;;;;;;2.42;2.05;;;;;;;;;;5019143;28;20032;-74
2021/09/25 00:43:37;;;;;;;2.10;1.80;;;;;;;;;;5019243;28;20060;-73
2021/09/25 00:46:03;;;;;;;3.22;2.20;;;;;;;;;;5018371;28;20018;-72
2021/09/25 00:48:29;;;;;;;3.00;2.20;;;;;;;;;;5019403;28;20025;-73
2021/09/25 00:50:55;;;;;;;3.20;2.10;;;;;;;;;;5019190;28;20030;-75
2021/09/25 00:53:21;;;;;;;2.30;2.10;;;;;;;;;;5019280;28;20022;-67
2021/09/25 00:55:48;;;;;;;2.72;2.22;;;;;;;;;;5018325;28;20018;-71
2021/09/25 00:58:14;;;;;;;2.15;1.95;;;;;;;;;;5018696;28;20033;-71
2021/09/25 01:00:40;;;;;;;2.10;1.90;;;;;;;;;;5018846;28;20379;-66
2021/09/25 01:03:06;;;;;;;4.05;2.15;;;;;;;;;;5018032;28;20052;-74
2021/09/25 01:05:33;;;;;;;2.10;1.85;;;;;;;;;;5018833;28;20038;-73
2021/09/25 01:07:59;;;;;;;3.13;2.20;;;;;;;;;;5018291;28;20030;-71
2021/09/25 01:10:26;;;;;;;2.10;1.90;;;;;;;;;;5017900;28;20142;-74
2021/09/25 01:12:52;;;;;;;2.03;1.83;;;;;;;;;;5018516;28;20018;-71
2021/09/25 01:15:19;;;;;;;2.10;1.90;;;;;;;;;;5018630;28;20037;-68
2021/09/25 01:17:46;;;;;;;2.47;1.70;;;;;;;;;;5018840;28;20034;-72
2021/09/25 01:20:12;;;;;;;2.00;1.80;;;;;;;;;;5017940;28;20030;-71
2021/09/25 01:22:38;;;;;;;2.17;1.83;;;;;;;;;;5018302;28;20042;-69
2021/09/25 01:25:05;;;;;;;2.20;2.00;;;;;;;;;;5018306;28;20026;-71
2021/09/25 01:27:31;;;;;;;2.97;1.90;;;;;;;;;;5018464;28;20025;-72
2021/09/25 01:29:57;;;;;;;2.65;2.00;;;;;;;;;;5018241;28;20046;-71
2021/09/25 01:32:23;;;;;;;2.97;2.35;;;;;;;;;;5018287;28;20014;-74
2021/09/25 01:34:49;;;;;;;3.28;2.20;;;;;;;;;;5017964;28;20204;-74
2021/09/25 01:37:15;;;;;;;2.88;2.25;;;;;;;;;;5017404;28;20034;-69
2021/09/25 01:39:41;;;;;;;5.13;2.70;;;;;;;;;;5017711;28;20384;-71
2021/09/25 01:42:07;;;;;;;3.88;2.58;;;;;;;;;;5017945;28;20048;-72
2021/09/25 01:44:33;;;;;;;3.38;2.65;;;;;;;;;;5018335;28;20026;-66
2021/09/25 01:47:00;;;;;;;4.85;3.20;;;;;;;;;;5017967;28;20424;-70
2021/09/25 01:49:26;;;;;;;3.72;3.28;;;;;;;;;;5020032;28;20276;-68
2021/09/25 01:51:53;;;;;;;4.10;2.97;;;;;;;;;;5024838;28;20022;-70
2021/09/25 01:54:19;;;;;;;4.63;2.90;;;;;;;;;;5025539;28;20021;-67
2021/09/25 01:56:46;;;;;;;3.10;2.80;;;;;;;;;;5025101;28;20048;-69
2021/09/25 01:59:12;;;;;;;4.03;3.33;;;;;;;;;;5024556;28;20123;-66
2021/09/25 02:01:39;;;;;;;4.50;2.97;;;;;;;;;;5024176;28;20030;-72
2021/09/25 02:04:06;;;;;;;3.88;2.80;;;;;;;;;;5020118;28;20519;-71
2021/09/25 02:06:32;;;;;;;5.25;2.90;;;;;;;;;;5019108;28;20485;-72
2021/09/25 02:08:58;;;;;;;4.20;3.05;;;;;;;;;;5018840;28;20535;-75
2021/09/25 02:11:25;;;;;;;4.20;3.20;;;;;;;;;;5019192;28;20089;-73
2021/09/25 02:13:51;;;;;;;3.88;2.80;;;;;;;;;;5018723;28;20021;-73
2021/09/25 02:16:17;;;;;;;3.80;2.70;;;;;;;;;;5018479;28;20022;-66
2021/09/25 02:18:44;;;;;;;5.07;2.80;;;;;;;;;;5018133;28;20465;-73
2021/09/25 02:21:10;;;;;;;4.15;2.83;;;;;;;;;;5018524;28;20046;-72
2021/09/25 02:23:36;;;;;;;4.55;2.95;;;;;;;;;;5019184;28;20033;-70
2021/09/25 02:26:03;;;;;;;3.60;2.60;;;;;;;;;;5018601;28;20025;-73
2021/09/25 02:28:30;;;;;;;4.15;2.95;;;;;;;;;;5019057;28;20500;-72
2021/09/25 02:30:56;;;;;;;4.75;2.95;;;;;;;;;;5018157;28;20113;-66
2021/09/25 02:33:23;;;;;;;6.10;3.38;;;;;;;;;;5018259;28;20101;-74
2021/09/25 02:35:49;;;;;;;4.25;3.05;;;;;;;;;;5018494;28;20022;-72
2021/09/25 02:38:17;;;;;;;5.90;3.28;;;;;;;;;;5018740;28;20061;-67
2021/09/25 02:40:43;;;;;;;4.78;3.33;;;;;;;;;;5016407;28;20034;-74
2021/09/25 02:43:09;;;;;;;4.65;2.95;;;;;;;;;;5016946;28;20026;-69
2021/09/25 02:45:35;;;;;;;5.63;3.30;;;;;;;;;;5017987;28;20057;-68
2021/09/25 02:48:02;;;;;;;4.93;3.05;;;;;;;;;;5018407;28;20026;-69
2021/09/25 02:50:28;;;;;;;4.95;3.58;;;;;;;;;;5017950;28;20023;-74
2021/09/25 02:52:54;;;;;;;3.80;2.80;;;;;;;;;;5019280;28;20080;-69
2021/09/25 02:55:20;;;;;;;9.85;3.72;;;;;;;;;;5017301;28;20038;-70
2021/09/25 02:57:46;;;;;;;6.47;3.00;;;;;;;;;;5017719;28;20037;-71
2021/09/25 03:00:14;;;;;;;4.57;3.35;;;;;;;;;;5017049;28;20033;-70
2021/09/25 03:02:41;;;;;;;4.63;2.90;;;;;;;;;;5016743;28;20037;-70
2021/09/25 03:05:07;;;;;;;5.57;3.45;;;;;;;;;;5017433;28;20460;-71
2021/09/25 03:07:33;;;;;;;5.25;3.53;;;;;;;;;;5017271;28;20114;-71
2021/09/25 03:09:59;;;;;;;7.38;3.10;;;;;;;;;;5020150;28;20206;-68
2021/09/25 03:12:25;;;;;;;5.22;3.40;;;;;;;;;;5020688;28;20026;-73
2021/09/25 03:14:52;;;;;;;5.93;3.63;;;;;;;;;;5020563;28;20025;-70
2021/09/25 03:17:18;;;;;;;4.93;3.40;;;;;;;;;;5020152;28;20568;-71
2021/09/25 03:19:46;;;;;;;6.25;3.60;;;;;;;;;;5020359;28;20026;-72
2021/09/25 03:22:13;;;;;;;5.75;3.47;;;;;;;;;;5020133;28;20389;-73
2021/09/25 03:24:39;;;;;;;6.35;3.40;;;;;;;;;;5020760;28;20392;-69
2021/09/25 03:27:05;;;;;;;5.22;3.75;;;;;;;;;;5019660;28;20099;-71
2021/09/25 03:29:31;;;;;;;4.60;3.25;;;;;;;;;;5020045;28;20018;-69
2021/09/25 03:32:04;;;;;;;6.53;3.53;;;;;;;;;;5019834;28;20389;-68
2021/09/25 03:34:30;;;;;;;5.72;3.80;;;;;;;;;;5019694;28;20489;-70
2021/09/25 03:36:56;;;;;;;9.05;4.25;;;;;;;;;;5019682;28;20029;-74
2021/09/25 03:39:22;;;;;;;5.75;3.60;;;;;;;;;;5020003;28;20097;-71
2021/09/25 03:41:48;;;;;;;6.82;3.65;;;;;;;;;;5018821;28;20030;-68
2021/09/25 03:44:14;;;;;;;4.80;3.42;;;;;;;;;;5019541;28;20034;-69
2021/09/25 03:46:40;;;;;;;6.15;3.22;;;;;;;;;;5019444;28;20045;-73
2021/09/25 03:49:06;;;;;;;6.65;3.53;;;;;;;;;;5019533;28;20032;-72
2021/09/25 03:51:32;;;;;;;7.35;3.80;;;;;;;;;;5019265;28;20053;-74
2021/09/25 03:53:59;;;;;;;5.45;3.22;;;;;;;;;;5019806;28;20022;-73
2021/09/25 03:56:25;;;;;;;6.05;3.80;;;;;;;;;;5019757;28;20025;-68
2021/09/25 03:58:51;;;;;;;6.07;4.25;;;;;;;;;;5019554;28;20030;-72
2021/09/25 04:01:17;;;;;;;8.88;3.70;;;;;;;;;;5019633;28;20022;-72
2021/09/25 04:03:44;;;;;;;5.43;3.40;;;;;;;;;;5019341;28;20042;-68
2021/09/25 04:06:11;;;;;;;6.47;3.90;;;;;;;;;;5019071;28;20029;-73
2021/09/25 04:08:37;;;;;;;5.57;3.80;;;;;;;;;;5019290;28;20030;-73
2021/09/25 04:11:03;;;;;;;7.07;3.67;;;;;;;;;;5019450;28;20117;-67
2021/09/25 04:13:29;;;;;;;7.03;3.92;;;;;;;;;;5019030;28;20501;-73
2021/09/25 04:15:55;;;;;;;5.60;3.53;;;;;;;;;;5019176;28;20026;-70
2021/09/25 04:18:21;;;;;;;6.47;3.30;;;;;;;;;;5018627;28;20101;-70
2021/09/25 04:20:47;;;;;;;6.55;3.58;;;;;;;;;;5017617;28;20112;-74
2021/09/25 04:23:13;;;;;;;6.25;3.47;;;;;;;;;;5019716;28;20030;-71
2021/09/25 04:25:39;;;;;;;4.57;3.08;;;;;;;;;;5018975;28;20512;-67
2021/09/25 04:28:07;;;;;;;4.72;3.38;;;;;;;;;;5018828;28;20428;-72
2021/09/25 04:30:34;;;;;;;4.60;2.80;;;;;;;;;;5019716;28;20033;-69
2021/09/25 04:33:00;;;;;;;5.50;3.80;;;;;;;;;;5019378;28;20034;-68
2021/09/25 04:35:26;;;;;;;4.97;3.33;;;;;;;;;;5019247;28;20022;-74
2021/09/25 04:37:52;;;;;;;5.15;2.95;;;;;;;;;;5019491;28;20053;-73
2021/09/25 04:40:19;;;;;;;5.78;3.30;;;;;;;;;;5019650;28;20022;-69
2021/09/25 04:42:45;;;;;;;4.53;3.08;;;;;;;;;;5020095;28;20384;-72
2021/09/25 04:45:14;;;;;;;5.78;3.50;;;;;;;;;;5019347;28;20030;-73
2021/09/25 04:47:44;;;;;;;6.60;3.45;;;;;;;;;;5019021;28;20030;-71
2021/09/25 04:50:11;;;;;;;6.30;3.83;;;;;;;;;;5019048;28;20048;-64
2021/09/25 04:52:37;;;;;;;5.38;3.63;;;;;;;;;;5019889;28;20025;-71
2021/09/25 04:55:03;;;;;;;7.18;4.60;;;;;;;;;;5019254;28;20058;-72
2021/09/25 04:57:30;;;;;;;6.43;3.58;;;;;;;;;;5019355;28;20049;-71
2021/09/25 04:59:56;;;;;;;4.90;3.63;;;;;;;;;;5019623;28;20037;-70
2021/09/25 05:02:22;;;;;;;5.72;3.65;;;;;;;;;;5019739;28;20042;-71
2021/09/25 05:04:48;;;;;;;5.80;3.40;;;;;;;;;;5018192;28;20033;-68
2021/09/25 05:07:14;;;;;;;6.07;3.58;;;;;;;;;;5019047;28;20030;-73
2021/09/25 05:09:40;;;;;;;5.35;3.65;;;;;;;;;;5020315;28;20026;-67
2021/09/25 05:12:06;;;;;;;5.22;3.50;;;;;;;;;;5019930;28;20385;-65
2021/09/25 05:14:35;;;;;;;6.88;3.42;;;;;;;;;;5019087;28;20049;-75
2021/09/25 05:17:02;;;;;;;5.85;3.53;;;;;;;;;;5018995;28;20465;-71
2021/09/25 05:19:28;;;;;;;5.30;3.40;;;;;;;;;;5018672;28;20030;-73
2021/09/25 05:21:54;;;;;;;4.53;3.35;;;;;;;;;;5018647;28;20017;-65
2021/09/25 05:24:20;;;;;;;6.00;3.40;;;;;;;;;;5018097;28;20099;-74
2021/09/25 05:26:47;;;;;;;9.05;3.75;;;;;;;;;;5018449;28;20089;-73
2021/09/25 05:29:13;;;;;;;6.40;3.28;;;;;;;;;;5018650;28;20029;-71
2021/09/25 05:31:39;;;;;;;6.28;3.72;;;;;;;;;;5017953;28;20033;-72
2021/09/25 05:34:05;;;;;;;6.78;3.38;;;;;;;;;;5018508;28;20026;-72
2021/09/25 05:36:31;;;;;;;6.47;3.92;;;;;;;;;;5017979;28;20022;-72
2021/09/25 05:38:57;;;;;;;5.50;3.40;;;;;;;;;;5017402;28;20038;-71
2021/09/25 05:41:24;;;;;;;6.80;3.97;;;;;;;;;;5018343;28;20022;-71
2021/09/25 05:43:53;;;;;;;7.43;3.88;;;;;;;;;;5018268;28;20400;-69
2021/09/25 05:46:19;;;;;;;6.53;4.07;;;;;;;;;;5017780;28;20018;-73
2021/09/25 05:48:47;;;;;;;6.50;4.25;;;;;;;;;;5018766;28;20037;-68
2021/09/25 05:51:14;;;;;;;7.55;4.05;;;;;;;;;;5018601;28;20078;-70
2021/09/25 05:53:40;;;;;;;7.00;4.35;;;;;;;;;;5018635;28;20033;-67
2021/09/25 05:56:06;;;;;;;6.80;3.25;;;;;;;;;;5018562;28;20115;-72
2021/09/25 05:58:32;;;;;;;5.70;3.63;;;;;;;;;;5018512;28;20030;-72
2021/09/25 06:00:58;;;;;;;6.95;4.38;;;;;;;;;;5018654;28;20548;-68
2021/09/25 06:03:24;;;;;;;6.63;4.10;;;;;;;;;;5018314;28;20457;-74
2021/09/25 06:05:51;;;;;;;6.63;3.95;;;;;;;;;;5019105;28;20085;-72
2021/09/25 06:08:17;;;;;;;7.05;4.47;;;;;;;;;;5019363;28;20038;-66
2021/09/25 06:10:43;;;;;;;9.07;4.47;;;;;;;;;;5019401;28;20057;-72
2021/09/25 06:13:10;;;;;;;6.82;4.00;;;;;;;;;;5018636;28;20018;-71
2021/09/25 06:15:36;;;;;;;6.65;4.68;;;;;;;;;;5018497;28;20049;-68
2021/09/25 06:18:02;;;;;;;7.47;4.82;;;;;;;;;;5019346;28;20035;-71
2021/09/25 06:20:29;;;;;;;6.53;4.05;;;;;;;;;;5019175;28;20032;-71
2021/09/25 06:22:55;;;;;;;7.47;4.47;;;;;;;;;;5018150;28;20022;-67
2021/09/25 06:25:21;;;;;;;7.82;4.53;;;;;;;;;;5018517;28;20452;-69
2021/09/25 06:27:47;;;;;;;7.13;4.30;;;;;;;;;;5018536;28;20025;-72
2021/09/25 06:30:16;;;;;;;7.72;4.47;;;;;;;;;;5018620;28;20052;-68
2021/09/25 06:32:42;;;;;;;8.32;4.65;;;;;;;;;;5018530;28;20029;-72
2021/09/25 06:35:10;;;;;;;7.90;4.55;;;;;;;;;;5017686;28;20033;-75
2021/09/25 06:37:36;;;;;;;8.23;4.65;;;;;;;;;;5018460;28;20036;-73
2021/09/25 06:40:03;;;;;;;6.65;3.95;;;;;;;;;;5018042;28;20091;-70
2021/09/25 06:42:29;;;;;;;6.38;4.07;;;;;;;;;;5018130;28;20030;-72
2021/09/25 06:44:55;;;;;;;7.88;4.15;;;;;;;;;;5021397;28;20026;-65
2021/09/25 06:47:21;;;;;;;8.25;4.85;;;;;;;;;;5021448;28;20030;-73
2021/09/25 06:49:47;;;;;;;7.25;4.47;;;;;;;;;;5021649;28;20022;-72
2021/09/25 06:52:13;;;;;;;9.95;5.00;;;;;;;;;;5022782;28;20018;-67
2021/09/25 06:54:39;;;;;;;9.40;5.25;;;;;;;;;;5021531;28;20026;-68
2021/09/25 06:57:06;;;;;;;10.77;5.20;;;;;;;;;;5021618;28;20026;-71
2021/09/25 06:59:32;;;;;;;10.95;5.28;;;;;;;;;;5022207;28;20030;-65
2021/09/25 07:01:58;;;;;;;8.85;4.72;;;;;;;;;;5021296;28;20026;-72
2021/09/25 07:04:24;;;;;;;7.65;4.53;;;;;;;;;;5021809;28;20053;-70
2021/09/25 07:06:50;;;;;;;9.10;5.75;;;;;;;;;;5022365;28;20033;-64
2021/09/25 07:09:17;;;;;;;9.60;5.38;;;;;;;;;;5022020;28;20412;-67
2021/09/25 07:11:43;;;;;;;9.60;5.18;;;;;;;;;;5021926;28;20396;-72
2021/09/25 07:14:10;;;;;;;10.00;5.63;;;;;;;;;;5022380;28;20112;-71
2021/09/25 07:16:36;;;;;;;8.50;5.35;;;;;;;;;;5021215;28;20021;-72
2021/09/25 07:19:04;;;;;;;11.60;5.45;;;;;;;;;;5021619;28;20018;-69
2021/09/25 07:21:30;;;;;;;7.88;5.53;;;;;;;;;;5021755;28;20495;-73
2021/09/25 07:23:56;;;;;;;11.10;5.53;;;;;;;;;;5021006;28;20018;-66
2021/09/25 07:26:23;;;;;;;7.72;4.78;;;;;;;;;;5021580;28;20030;-72
2021/09/25 07:28:49;;;;;;;11.25;5.25;;;;;;;;;;5020290;28;20033;-71
2021/09/25 07:31:15;;;;;;;13.77;5.32;;;;;;;;;;5020234;28;20018;-67
2021/09/25 07:33:42;;;;;;;9.63;4.90;;;;;;;;;;5020198;28;20022;-75
2021/09/25 07:36:08;;;;;;;9.88;4.72;;;;;;;;;;5020492;28;20022;-71
2021/09/25 07:38:34;;;;;;;8.70;4.68;;;;;;;;;;5021092;28;20027;-64
2021/09/25 07:41:01;;;;;;;8.90;4.75;;;;;;;;;;5020954;28;20034;-69
2021/09/25 07:43:27;;;;;;;7.03;4.88;;;;;;;;;;5021348;28;20026;-73
2021/09/25 07:45:55;;;;;;;10.10;5.03;;;;;;;;;;5019966;28;20416;-70
2021/09/25 07:48:21;;;;;;;10.80;5.60;;;;;;;;;;5022226;28;20086;-73
2021/09/25 07:50:48;;;;;;;8.77;4.47;;;;;;;;;;5022460;28;20026;-72
2021/09/25 07:53:17;;;;;;;7.82;4.85;;;;;;;;;;5021636;28;20022;-67
2021/09/25 07:55:43;;;;;;;8.88;4.75;;;;;;;;;;5021343;28;20018;-66
2021/09/25 07:58:09;;;;;;;6.82;4.20;;;;;;;;;;5021811;28;20030;-72
2021/09/25 08:00:36;;;;;;;8.10;4.78;;;;;;;;;;5022905;28;20026;-72
2021/09/25 08:03:03;;;;;;;7.47;4.57;;;;;;;;;;5021637;28;20124;-70
2021/09/25 08:05:29;;;;;;;8.30;4.95;;;;;;;;;;5021292;28;20034;-74
2021/09/25 08:07:55;;;;;;;9.32;4.88;;;;;;;;;;5021364;28;20109;-70
2021/09/25 08:10:21;;;;;;;7.85;4.35;;;;;;;;;;5020613;28;20030;-72
2021/09/25 08:12:47;;;;;;;6.53;3.53;;;;;;;;;;5020918;28;20030;-70
2021/09/25 08:15:14;;;;;;;7.90;5.03;;;;;;;;;;5021018;28;20029;-72
2021/09/25 08:17:40;;;;;;;8.75;5.25;;;;;;;;;;5023005;28;20103;-67
2021/09/25 08:20:07;;;;;;;6.38;4.18;;;;;;;;;;5022544;28;20030;-74
2021/09/25 08:22:34;;;;;;;8.75;4.20;;;;;;;;;;5021635;28;20032;-74
2021/09/25 08:25:00;;;;;;;6.55;4.38;;;;;;;;;;5023064;28;20054;-68
2021/09/25 08:27:26;;;;;;;6.57;3.90;;;;;;;;;;5023561;28;20037;-69
2021/09/25 08:29:52;;;;;;;7.20;4.20;;;;;;;;;;5023240;28;20018;-68
2021/09/25 08:32:21;;;;;;;5.95;3.53;;;;;;;;;;5024338;28;20057;-69
2021/09/25 08:34:47;;;;;;;6.43;3.55;;;;;;;;;;5024706;28;20022;-66
2021/09/25 08:37:15;;;;;;;5.47;3.60;;;;;;;;;;5023912;28;20101;-69
2021/09/25 08:39:41;;;;;;;5.13;3.58;;;;;;;;;;5023417;28;20081;-70
2021/09/25 08:42:08;;;;;;;5.90;3.65;;;;;;;;;;5021845;28;20026;-70
2021/09/25 08:44:35;;;;;;;5.43;3.45;;;;;;;;;;5023171;28;20481;-65
2021/09/25 08:47:01;;;;;;;4.20;2.70;;;;;;;;;;5022367;28;20026;-72
2021/09/25 08:49:27;;;;;;;3.80;2.80;;;;;;;;;;5021062;28;20026;-70
2021/09/25 08:51:53;;;;;;;3.95;2.60;;;;;;;;;;5021636;28;20385;-70
2021/09/25 08:54:19;;;;;;;5.05;3.10;;;;;;;;;;5020718;28;20022;-72
2021/09/25 08:56:46;;;;;;;6.90;3.38;;;;;;;;;;5020964;28;20033;-69
2021/09/25 08:59:12;;;;;;;4.07;2.95;;;;;;;;;;5019526;28;20485;-73
2021/09/25 09:01:42;;;;;;;4.18;3.03;;;;;;;;;;5020523;28;20029;-74
2021/09/25 09:04:08;;;;;;;3.47;2.83;;;;;;;;;;5019071;28;20120;-69
2021/09/25 09:06:36;;;;;;;4.18;2.53;;;;;;;;;;5017921;28;20037;-71
2021/09/25 09:09:06;;;;;;;3.30;2.58;;;;;;;;;;5018929;28;20029;-75
2021/09/25 09:11:35;;;;;;;5.43;2.67;;;;;;;;;;5019438;28;20026;-74
2021/09/25 09:14:03;;;;;;;3.47;2.30;;;;;;;;;;5020020;28;20073;-72
2021/09/25 09:16:30;;;;;;;3.15;2.60;;;;;;;;;;5020420;28;20037;-74
2021/09/25 09:18:56;;;;;;;2.80;2.10;;;;;;;;;;5021572;28;20022;-66
2021/09/25 09:21:23;;;;;;;4.28;2.53;;;;;;;;;;5025264;28;20486;-70
2021/09/25 09:23:49;;;;;;;3.47;2.42;;;;;;;;;;5023205;28;20026;-67
2021/09/25 09:26:20;;;;;;;2.97;2.60;;;;;;;;;;5024364;28;20025;-68
2021/09/25 09:28:48;;;;;;;3.15;2.20;;;;;;;;;;5022533;28;20041;-69
2021/09/25 09:31:14;;;;;;;2.20;2.00;;;;;;;;;;5022381;28;20596;-68
2021/09/25 09:33:44;;;;;;;4.00;2.45;;;;;;;;;;5025588;28;20053;-71
2021/09/25 09:36:27;;;;;;;3.63;2.00;;;;;;;;;;5025574;28;20029;-66
2021/09/25 09:38:55;;;;;;;2.88;2.13;;;;;;;;;;5025011;28;20388;-65
2021/09/25 09:41:26;;;;;;;1.88;1.60;;;;;;;;;;5024163;28;20022;-70
2021/09/25 09:43:52;;;;;;;2.40;2.00;;;;;;;;;;5025076;28;20029;-68
2021/09/25 09:46:20;;;;;;;2.05;1.73;;;;;;;;;;5025160;28;20054;-69
2021/09/25 09:48:48;;;;;;;2.30;2.10;;;;;;;;;;5025112;28;20037;-72
2021/09/25 09:51:14;;;;;;;2.10;1.52;;;;;;;;;;5025329;28;20050;-70
2021/09/25 09:53:44;;;;;;;2.00;1.80;;;;;;;;;;5025543;28;20026;-73
2021/09/25 09:56:24;;;;;;;1.75;1.65;;;;;;;;;;5025737;28;20030;-68
2021/09/25 09:59:00;;;;;;;1.80;1.70;;;;;;;;;;5024296;28;20041;-71
2021/09/25 10:01:27;;;;;;;1.73;1.48;;;;;;;;;;5021560;28;20054;-67
2021/09/25 10:03:53;;;;;;;1.60;1.50;;;;;;;;;;5020548;28;20077;-68
2021/09/25 10:06:19;;;;;;;1.60;1.50;;;;;;;;;;5018380;28;20109;-70
2021/09/25 10:08:45;;;;;;;2.03;1.60;;;;;;;;;;5017787;28;20074;-74
2021/09/25 10:11:11;;;;;;;4.85;1.80;;;;;;;;;;5017178;28;20033;-74
2021/09/25 10:13:41;;;;;;;1.88;1.20;;;;;;;;;;5016734;28;20030;-70
2021/09/25 10:16:08;;;;;;;1.55;1.40;;;;;;;;;;5017175;28;20370;-73
2021/09/25 10:18:35;;;;;;;1.60;1.50;;;;;;;;;;5020289;28;20086;-72
2021/09/25 10:21:02;;;;;;;1.65;1.48;;;;;;;;;;5020992;28;20053;-69
2021/09/25 10:23:28;;;;;;;1.50;1.40;;;;;;;;;;5020950;28;20397;-71
2021/09/25 10:25:54;;;;;;;1.50;1.40;;;;;;;;;;5021053;28;20056;-74
2021/09/25 10:28:28;;;;;;;1.90;1.50;;;;;;;;;;5020509;28;20105;-72
2021/09/25 10:30:54;;;;;;;1.42;1.33;;;;;;;;;;5023006;28;20034;-73
2021/09/25 10:33:22;;;;;;;1.73;1.60;;;;;;;;;;5024014;28;20497;-65
2021/09/25 10:35:49;;;;;;;2.22;1.40;;;;;;;;;;5025165;28;20014;-71
2021/09/25 10:38:30;;;;;;;1.55;1.45;;;;;;;;;;5020452;28;20034;-72
2021/09/25 10:41:12;;;;;;;1.63;1.52;;;;;;;;;;5022089;28;20030;-73
2021/09/25 10:43:41;;;;;;;2.13;1.40;;;;;;;;;;5022912;28;20022;-74
2021/09/25 10:46:09;;;;;;;1.58;1.48;;;;;;;;;;5022488;28;20056;-71
2021/09/25 10:48:44;;;;;;;1.60;1.50;;;;;;;;;;5022099;28;20105;-72
2021/09/25 10:51:14;;;;;;;1.80;1.65;;;;;;;;;;5021820;28;20385;-70
2021/09/25 10:53:42;;;;;;;1.50;1.40;;;;;;;;;;5021905;28;20089;-72
2021/09/25 10:56:18;;;;;;;2.10;1.70;;;;;;;;;;5021039;28;20022;-70
2021/09/25 10:58:55;;;;;;;1.50;1.40;;;;;;;;;;5021019;28;20030;-74
2021/09/25 11:01:34;;;;;;;1.40;1.30;;;;;;;;;;5020441;28;20160;-69
2021/09/25 11:04:08;;;;;;;1.88;1.42;;;;;;;;;;5020357;28;20054;-72
2021/09/25 11:06:45;;;;;;;1.65;1.50;;;;;;;;;;5020277;28;20463;-74
2021/09/25 11:09:31;;;;;;;2.50;2.20;;;;;;;;;;5020973;28;20037;-68
2021/09/25 11:12:08;;;;;;;1.55;1.45;;;;;;;;;;5020490;28;20105;-66
2021/09/25 11:14:44;;;;;;;1.60;1.50;;;;;;;;;;5020184;28;20101;-74
2021/09/25 11:17:13;;;;;;;1.70;1.60;;;;;;;;;;5019486;28;20034;-71
2021/09/25 11:19:47;;;;;;;1.88;1.60;;;;;;;;;;5020435;28;20040;-71
2021/09/25 11:22:13;;;;;;;2.40;1.77;;;;;;;;;;5019947;28;20045;-73
2021/09/25 11:24:40;;;;;;;1.88;1.70;;;;;;;;;;5020166;28;20026;-74
2021/09/25 11:27:12;;;;;;;1.75;1.65;;;;;;;;;;5020356;28;20025;-71
2021/09/25 11:29:53;;;;;;;1.98;1.83;;;;;;;;;;5020065;28;20037;-73
2021/09/25 11:32:23;;;;;;;2.58;1.83;;;;;;;;;;5019394;28;20030;-69
2021/09/25 11:34:49;;;;;;;3.15;1.80;;;;;;;;;;5019228;28;20025;-72
2021/09/25 11:37:15;;;;;;;1.83;1.70;;;;;;;;;;5019636;28;20113;-73
2021/09/25 11:39:43;;;;;;;2.97;1.80;;;;;;;;;;5019122;28;20033;-72
2021/09/25 11:42:23;;;;;;;2.13;1.92;;;;;;;;;;5019548;28;20030;-69
2021/09/25 11:45:00;;;;;;;3.85;2.08;;;;;;;;;;5019619;28;20065;-72
2021/09/25 11:47:26;;;;;;;2.60;1.60;;;;;;;;;;5019291;28;20026;-70
2021/09/25 11:49:53;;;;;;;2.97;1.80;;;;;;;;;;5020342;28;20033;-72
2021/09/25 11:52:19;;;;;;;2.13;1.92;;;;;;;;;;5019327;28;20025;-72
2021/09/25 11:54:46;;;;;;;2.42;1.70;;;;;;;;;;5018241;28;20354;-73
2021/09/25 11:57:17;;;;;;;2.40;1.92;;;;;;;;;;5020707;28;20033;-72
2021/09/25 11:59:43;;;;;;;2.22;1.98;;;;;;;;;;5021150;28;20034;-72
2021/09/25 12:02:09;;;;;;;2.38;1.85;;;;;;;;;;5022090;28;20064;-72
2021/09/25 12:04:42;;;;;;;3.33;2.00;;;;;;;;;;5020353;28;20030;-71
2021/09/25 12:07:09;;;;;;;3.90;2.03;;;;;;;;;;5020963;28;20496;-72
2021/09/25 12:09:42;;;;;;;2.67;2.15;;;;;;;;;;5022642;28;20025;-72
2021/09/25 12:12:08;;;;;;;2.15;1.90;;;;;;;;;;5022050;28;20532;-72
2021/09/25 12:14:45;;;;;;;3.58;2.20;;;;;;;;;;5023514;28;20010;-69
2021/09/25 12:17:17;;;;;;;3.00;2.60;;;;;;;;;;5027188;28;20033;-66
2021/09/25 12:19:43;;;;;;;3.60;2.20;;;;;;;;;;5026274;28;20060;-67
2021/09/25 12:22:19;;;;;;;2.42;2.20;;;;;;;;;;5027071;28;20029;-68
2021/09/25 12:24:45;;;;;;;3.25;2.03;;;;;;;;;;5026190;28;20026;-67
2021/09/25 12:27:11;;;;;;;2.20;2.00;;;;;;;;;;5019511;28;20041;-76
2021/09/25 12:29:38;;;;;;;2.33;2.13;;;;;;;;;;5017827;28;20029;-67
2021/09/25 12:32:04;;;;;;;2.53;2.20;;;;;;;;;;5015798;28;20022;-77
2021/09/25 12:34:30;;;;;;;3.30;1.95;;;;;;;;;;5016792;28;20062;-76
2021/09/25 12:36:59;;;;;;;3.38;2.40;;;;;;;;;;5017183;28;20030;-76
2021/09/25 12:39:27;;;;;;;3.28;2.13;;;;;;;;;;5016559;28;20525;-73
2021/09/25 12:41:57;;;;;;;4.20;2.20;;;;;;;;;;5014487;28;20037;-77
2021/09/25 12:44:24;;;;;;;2.53;2.33;;;;;;;;;;5017174;28;20050;-77
2021/09/25 12:46:52;;;;;;;2.38;2.15;;;;;;;;;;5017418;28;20061;-77
2021/09/25 12:49:18;;;;;;;2.50;2.30;;;;;;;;;;5016953;28;20026;-75
2021/09/25 12:51:53;;;;;;;3.13;2.30;;;;;;;;;;5016574;28;20025;-76
2021/09/25 12:54:20;;;;;;;2.95;2.55;;;;;;;;;;5016690;28;20022;-71
2021/09/25 12:56:48;;;;;;;2.88;2.58;;;;;;;;;;5016305;28;20087;-77
2021/09/25 12:59:16;;;;;;;3.75;2.47;;;;;;;;;;5016646;28;20530;-77
2021/09/25 13:01:43;;;;;;;2.90;2.30;;;;;;;;;;5016407;28;20026;-74
2021/09/25 13:04:20;;;;;;;3.03;2.70;;;;;;;;;;5015829;28;20041;-71
2021/09/25 13:06:46;;;;;;;2.67;2.20;;;;;;;;;;5016091;28;20017;-76
2021/09/25 13:09:12;;;;;;;4.45;2.33;;;;;;;;;;5016320;28;20026;-74
2021/09/25 13:11:39;;;;;;;4.00;2.30;;;;;;;;;;5016314;28;20033;-77
2021/09/25 13:14:12;;;;;;;3.55;2.65;;;;;;;;;;5016315;28;20026;-77
2021/09/25 13:16:40;;;;;;;2.78;2.40;;;;;;;;;;5016270;28;20091;-78
2021/09/25 13:19:06;;;;;;;3.25;2.40;;;;;;;;;;5016715;28;20017;-77
2021/09/25 13:21:33;;;;;;;3.50;2.42;;;;;;;;;;5016581;28;20053;-73
2021/09/25 13:24:03;;;;;;;3.33;3.03;;;;;;;;;;5016467;28;20097;-77
2021/09/25 13:26:29;;;;;;;2.80;2.47;;;;;;;;;;5016530;28;20030;-77
2021/09/25 13:28:55;;;;;;;2.47;2.28;;;;;;;;;;5015133;28;20033;-77
2021/09/25 13:31:22;;;;;;;2.60;2.20;;;;;;;;;;5016616;28;20036;-75
2021/09/25 13:33:48;;;;;;;2.88;2.58;;;;;;;;;;5016613;28;20036;-73
2021/09/25 13:36:14;;;;;;;3.33;2.30;;;;;;;;;;5016677;28;20167;-74
2021/09/25 13:38:40;;;;;;;4.43;2.47;;;;;;;;;;5015944;28;20164;-68
2021/09/25 13:41:06;;;;;;;2.47;2.22;;;;;;;;;;5015863;28;20510;-75
2021/09/25 13:43:32;;;;;;;3.28;2.33;;;;;;;;;;5014664;28;20466;-73
2021/09/25 13:45:58;;;;;;;2.63;2.40;;;;;;;;;;5016166;28;20021;-71
2021/09/25 13:48:24;;;;;;;4.25;2.78;;;;;;;;;;5016044;28;20030;-77
2021/09/25 13:50:50;;;;;;;3.53;2.55;;;;;;;;;;5016155;28;20030;-77
2021/09/25 13:53:16;;;;;;;3.58;2.40;;;;;;;;;;5015446;28;20022;-75
2021/09/25 13:55:42;;;;;;;2.53;2.33;;;;;;;;;;5015469;28;20026;-78
2021/09/25 13:58:08;;;;;;;2.85;2.42;;;;;;;;;;5015481;28;20030;-73
2021/09/25 14:00:34;;;;;;;2.72;2.45;;;;;;;;;;5015028;28;20362;-75
2021/09/25 14:03:01;;;;;;;3.45;2.55;;;;;;;;;;5015218;28;20061;-74
2021/09/25 14:05:27;;;;;;;4.20;2.40;;;;;;;;;;5015750;28;20026;-65
2021/09/25 14:07:54;;;;;;;2.80;2.28;;;;;;;;;;5015281;28;20036;-76
2021/09/25 14:10:21;;;;;;;2.70;2.20;;;;;;;;;;5015253;28;20264;-76
2021/09/25 14:12:47;;;;;;;4.72;2.67;;;;;;;;;;5015283;28;20033;-77
2021/09/25 14:15:13;;;;;;;2.97;2.45;;;;;;;;;;5015247;28;20060;-74
2021/09/25 14:17:39;;;;;;;2.33;2.13;;;;;;;;;;5015713;28;20037;-77
2021/09/25 14:20:06;;;;;;;3.38;2.20;;;;;;;;;;5015311;28;20452;-76
2021/09/25 14:22:35;;;;;;;3.45;2.67;;;;;;;;;;5015300;28;20022;-71
2021/09/25 14:25:01;;;;;;;3.80;2.50;;;;;;;;;;5014992;28;20022;-77
2021/09/25 14:27:28;;;;;;;4.13;2.72;;;;;;;;;;5013928;28;20104;-77
2021/09/25 14:29:54;;;;;;;3.22;2.92;;;;;;;;;;5015705;28;20033;-74
2021/09/25 14:32:21;;;;;;;3.20;2.40;;;;;;;;;;5015022;28;20034;-76
2021/09/25 14:34:47;;;;;;;3.85;2.30;;;;;;;;;;5015849;28;20022;-78
2021/09/25 14:37:13;;;;;;;3.53;2.38;;;;;;;;;;5015838;28;20037;-74
2021/09/25 14:39:40;;;;;;;3.88;2.33;;;;;;;;;;5016160;28;20112;-75
2021/09/25 14:42:06;;;;;;;3.40;2.13;;;;;;;;;;5017306;28;20074;-76
2021/09/25 14:44:33;;;;;;;2.90;2.40;;;;;;;;;;5019215;28;20037;-66